Terminal Aerodrome Forecast
Issued by NWS

Home | Current Version | Previous Version | Graphics & Text | Print | Product List | Glossary On
Versions: 1 2 3 4 5 6 7 8 9 10 11 12 13 14 15 16 17 18 19 20
000
FTUS43 KICT 182043 AAA
TAFRSL
TAF AMD
KRSL 182043Z 1821/1918 VRB03KT P6SM OVC012
      TEMPO 1821/1901 5SM BR OVC009
     FM190300 15005KT 4SM BR OVC006
     FM190800 17005KT 1SM BR OVC003
     FM191500 18006KT 4SM BR OVC007=

USA.gov is the U.S. government's official web portal to all federal, state and local government web resources and services.